Time;durP1;ratioP1;P1;durP2;ratioP2;P2;SDS_P1;SDS_P2;PMS_P1;PMS_P2;Temp;Humidity;BMP_temperature;BMP_pressure;BME280_temperature;BME280_humidity;BME280_pressure;Samples;Min_cycle;Max_cycle;Signal;HPM_P1;HPM_P2
2022/09/05 00:00:08;;;;;;;3.92;3.15;;;16.80;99.90;;;;;;4999973;28;36534;-80
2022/09/05 00:02:40;;;;;;;5.85;2.90;;;16.70;99.90;;;;;;5002602;28;48155;-81
2022/09/05 00:05:18;;;;;;;4.85;2.70;;;16.60;99.90;;;;;;5016484;28;37111;-82
2022/09/05 00:08:06;;;;;;;3.40;2.72;;;16.60;99.90;;;;;;5018598;28;37232;-81
2022/09/05 00:11:02;;;;;;;4.53;3.22;;;16.60;99.90;;;;;;4998336;28;48725;-80
2022/09/05 00:13:38;;;;;;;6.95;3.65;;;16.50;99.90;;;;;;4996943;28;46646;-82
2022/09/05 00:16:30;;;;;;;4.90;2.80;;;16.50;99.90;;;;;;5003086;28;38339;-81
2022/09/05 00:19:05;;;;;;;5.67;3.53;;;16.50;99.90;;;;;;5020299;28;38175;-80
2022/09/05 00:21:38;;;;;;;7.55;3.40;;;16.40;99.90;;;;;;4999432;28;48630;-79
2022/09/05 00:24:44;;;;;;;6.70;3.50;;;16.40;99.90;;;;;;5005383;28;39819;-78
2022/09/05 00:27:29;;;;;;;6.75;3.03;;;16.40;99.90;;;;;;5004209;28;38926;-78
2022/09/05 00:30:06;;;;;;;5.88;3.33;;;16.30;99.90;;;;;;5007637;28;38185;-79
2022/09/05 00:32:54;;;;;;;5.63;3.38;;;16.20;99.90;;;;;;5004579;28;46956;-80
2022/09/05 00:35:34;;;;;;;3.72;3.08;;;16.30;99.90;;;;;;5018595;28;38845;-79
2022/09/05 00:38:22;;;;;;;6.93;3.15;;;16.30;99.90;;;;;;5019032;28;38264;-80
2022/09/05 00:40:55;;;;;;;6.32;4.00;;;16.30;99.90;;;;;;5008057;28;48924;-81
2022/09/05 00:43:35;;;;;;;4.90;3.30;;;16.30;99.90;;;;;;5014635;28;38233;-81
2022/09/05 00:46:09;;;;;;;5.03;3.40;;;16.30;99.90;;;;;;5022162;28;38893;-80
2022/09/05 00:49:02;;;;;;;4.50;3.15;;;16.30;99.90;;;;;;5003599;28;49420;-81
2022/09/05 00:52:02;;;;;;;5.75;3.42;;;16.20;99.90;;;;;;5004407;28;48108;-79
2022/09/05 00:55:04;;;;;;;5.90;3.00;;;16.20;99.90;;;;;;5001008;28;46974;-78
2022/09/05 00:58:02;;;;;;;5.50;3.20;;;16.20;99.90;;;;;;5014420;28;46912;-79
2022/09/05 01:03:36;;;;;;;6.40;3.20;;;16.20;99.90;;;;;;5297180;23;20057;-80
2022/09/05 01:06:31;;;;;;;6.55;3.30;;;16.20;99.90;;;;;;5038670;28;36968;-79
2022/09/05 01:09:03;;;;;;;5.85;3.53;;;16.10;99.90;;;;;;5038094;28;39278;-79
2022/09/05 01:12:01;;;;;;;4.10;3.22;;;16.10;99.90;;;;;;5040736;28;46852;-79
2022/09/05 01:14:53;;;;;;;6.80;3.38;;;16.10;99.90;;;;;;5042457;28;47223;-80
2022/09/05 01:17:44;;;;;;;4.00;3.15;;;16.10;99.90;;;;;;5037190;28;37394;-79
2022/09/05 01:20:38;;;;;;;5.72;3.53;;;16.10;99.90;;;;;;5040565;28;39412;-81
2022/09/05 01:23:31;;;;;;;5.60;3.63;;;16.10;99.90;;;;;;5036803;28;37397;-81
2022/09/05 01:26:22;;;;;;;5.88;3.30;;;16.10;99.90;;;;;;5039422;28;40091;-81
2022/09/05 01:29:28;;;;;;;6.47;3.25;;;16.10;99.90;;;;;;5041454;28;47177;-80
2022/09/05 01:32:18;;;;;;;4.70;3.13;;;16.10;99.90;;;;;;5033634;28;38961;-81
2022/09/05 01:35:35;;;;;;;5.72;3.30;;;16.10;99.90;;;;;;5039006;28;47211;-81
2022/09/05 01:38:20;;;;;;;6.00;3.28;;;16.20;99.90;;;;;;5037973;28;48691;-81
2022/09/05 01:41:18;;;;;;;6.18;3.25;;;16.20;99.90;;;;;;5046121;28;38407;-82
2022/09/05 01:44:05;;;;;;;3.55;2.92;;;16.20;99.90;;;;;;5044640;28;48314;-81
2022/09/05 01:46:33;;;;;;;3.88;2.83;;;16.10;99.90;;;;;;5038880;28;49026;-81
2022/09/05 01:49:15;;;;;;;4.30;3.20;;;16.20;99.90;;;;;;5041903;28;38810;-81
2022/09/05 01:52:10;;;;;;;3.97;3.17;;;16.20;99.90;;;;;;5037326;28;49463;-80
2022/09/05 01:54:58;;;;;;;4.18;3.30;;;16.20;99.90;;;;;;5038246;28;48763;-81
2022/09/05 01:57:49;;;;;;;4.50;3.03;;;16.30;99.90;;;;;;5040341;28;38319;-81
2022/09/05 02:00:20;;;;;;;7.22;4.13;;;16.30;99.90;;;;;;5040819;28;38754;-82
2022/09/05 02:03:06;;;;;;;5.55;3.40;;;16.30;99.90;;;;;;5044952;28;38334;-83
2022/09/05 02:05:47;;;;;;;5.90;3.50;;;16.30;99.90;;;;;;5061169;28;48912;-82
2022/09/05 02:08:38;;;;;;;7.63;3.83;;;16.40;99.90;;;;;;5044622;28;39373;-79
2022/09/05 02:11:09;;;;;;;6.32;4.18;;;16.40;99.90;;;;;;5046432;28;38961;-79
2022/09/05 02:13:36;;;;;;;9.18;4.25;;;16.30;99.90;;;;;;5059201;28;37145;-81
2022/09/05 02:16:32;;;;;;;4.05;3.00;;;16.30;99.90;;;;;;5059871;28;39644;-80
2022/09/05 02:19:05;;;;;;;4.90;4.07;;;16.30;99.90;;;;;;5042570;28;47065;-81
2022/09/05 02:21:40;;;;;;;8.30;3.80;;;16.40;99.90;;;;;;5060792;28;48537;-83
2022/09/05 02:24:33;;;;;;;7.05;3.92;;;16.40;99.90;;;;;;5061212;28;36797;-81
2022/09/05 02:27:28;;;;;;;6.18;4.15;;;16.40;99.90;;;;;;5041922;28;39119;-82
2022/09/05 02:30:16;;;;;;;4.32;3.63;;;16.40;99.90;;;;;;5043831;28;47072;-80
2022/09/05 02:33:27;;;;;;;7.05;4.43;;;16.40;99.90;;;;;;5043349;28;46901;-82
2022/09/05 02:36:10;;;;;;;5.25;3.70;;;16.40;99.90;;;;;;4978142;28;47160;-79
2022/09/05 02:38:48;;;;;;;6.68;4.57;;;16.40;99.90;;;;;;4985403;28;48658;-80
2022/09/05 02:41:51;;;;;;;7.15;3.78;;;16.40;99.90;;;;;;5031216;28;38250;-81
2022/09/05 02:44:17;;;;;;;;;;;16.30;99.90;;;;;;5061846;28;38336;-81
2022/09/05 02:46:50;;;;;;;4.63;4.05;;;16.30;99.90;;;;;;5065129;28;38953;-81
2022/09/05 02:49:44;;;;;;;9.23;4.00;;;16.30;99.90;;;;;;5062389;28;39183;-82
2022/09/05 02:52:14;;;;;;;7.28;4.57;;;16.20;99.90;;;;;;5043264;28;39237;-81
2022/09/05 02:54:47;;;;;;;7.68;5.45;;;16.20;99.90;;;;;;5039565;28;36777;-82
2022/09/05 02:57:41;;;;;;;8.25;4.28;;;16.20;99.90;;;;;;5047288;28;36362;-81
2022/09/05 03:00:16;;;;;;;6.60;4.72;;;16.20;99.90;;;;;;5054565;28;39505;-80
2022/09/05 03:02:52;;;;;;;6.75;4.75;;;16.20;99.90;;;;;;5040180;28;36996;-81
2022/09/05 03:05:31;;;;;;;6.72;4.10;;;16.20;99.90;;;;;;5057943;28;36446;-81
2022/09/05 03:08:19;;;;;;;8.65;4.65;;;16.20;99.90;;;;;;5063852;28;36774;-81
2022/09/05 03:11:10;;;;;;;5.78;3.90;;;16.20;99.90;;;;;;5058246;28;47140;-82
2022/09/05 03:13:42;;;;;;;7.18;4.35;;;16.20;99.90;;;;;;5060012;28;48897;-80
2022/09/05 03:16:30;;;;;;;5.82;4.72;;;16.10;99.90;;;;;;5060910;28;37952;-80
2022/09/05 03:19:14;;;;;;;6.90;4.70;;;16.10;99.90;;;;;;5059609;28;37387;-80
2022/09/05 03:22:12;;;;;;;10.57;4.60;;;16.10;99.90;;;;;;5059433;28;48958;-79
2022/09/05 03:25:16;;;;;;;10.57;4.78;;;16.10;99.90;;;;;;5058655;28;48903;-82
2022/09/05 03:28:03;;;;;;;5.70;4.80;;;16.00;99.90;;;;;;5043662;28;47454;-81
2022/09/05 03:31:10;;;;;;;7.82;5.25;;;16.00;99.90;;;;;;5056488;28;49618;-82
2022/09/05 03:33:55;;;;;;;8.73;4.78;;;16.00;99.90;;;;;;5029224;28;47002;-81
2022/09/05 03:36:57;;;;;;;6.38;5.45;;;15.90;99.90;;;;;;5052837;28;38455;-81
2022/09/05 03:39:52;;;;;;;7.80;5.25;;;16.00;99.90;;;;;;5058768;28;37705;-81
2022/09/05 03:42:34;;;;;;;8.45;5.15;;;15.90;99.90;;;;;;5043990;28;39222;-81
2022/09/05 03:45:30;;;;;;;8.38;5.72;;;15.90;99.90;;;;;;5044277;28;39732;-81
2022/09/05 03:48:30;;;;;;;6.78;5.20;;;15.90;99.90;;;;;;5055171;28;47495;-81
2022/09/05 03:51:02;;;;;;;8.52;5.20;;;15.90;99.90;;;;;;5037064;28;47154;-82
2022/09/05 03:54:06;;;;;;;9.43;5.30;;;15.90;99.90;;;;;;5062687;28;47160;-82
2022/09/05 03:56:38;;;;;;;8.68;5.53;;;15.90;99.90;;;;;;5064200;28;48101;-81
2022/09/05 03:59:07;;;;;;;;;;;15.90;99.90;;;;;;5043324;28;38409;-81
2022/09/05 04:01:50;;;;;;;8.40;5.20;;;15.90;99.90;;;;;;5059102;28;38383;-81
2022/09/05 04:04:34;;;;;;;8.82;6.10;;;15.90;99.90;;;;;;5060130;28;37708;-83
2022/09/05 04:07:23;;;;;;;8.13;6.00;;;15.90;99.90;;;;;;5066265;28;39554;-81
2022/09/05 04:10:01;;;;;;;11.85;6.15;;;15.80;99.90;;;;;;5048896;28;47460;-81
2022/09/05 04:12:32;;;;;;;7.53;5.00;;;15.80;99.90;;;;;;5043106;28;47651;-82
2022/09/05 04:15:21;;;;;;;5.83;5.23;;;15.80;99.90;;;;;;5063233;28;37246;-82
2022/09/05 04:17:52;;;;;;;10.02;6.18;;;15.80;99.90;;;;;;5065747;28;48579;-81
2022/09/05 04:20:46;;;;;;;10.30;6.35;;;15.80;99.90;;;;;;5045193;28;39573;-81
2022/09/05 04:23:43;;;;;;;6.45;5.40;;;15.90;99.90;;;;;;5064680;28;37833;-81
2022/09/05 04:26:37;;;;;;;6.60;6.00;;;16.00;99.90;;;;;;5040641;28;37940;-81
2022/09/05 04:29:25;;;;;;;6.97;6.07;;;16.10;99.90;;;;;;5049376;28;41338;-81
2022/09/05 04:32:15;;;;;;;8.18;6.15;;;16.10;99.90;;;;;;5067278;28;39139;-81
2022/09/05 04:34:52;;;;;;;7.05;5.72;;;16.20;99.90;;;;;;5046785;28;47164;-81
2022/09/05 04:37:59;;;;;;;6.45;5.57;;;16.20;99.90;;;;;;5069642;28;38714;-82
2022/09/05 04:40:36;;;;;;;9.05;6.38;;;16.30;99.90;;;;;;5050626;28;39223;-83
2022/09/05 04:43:11;;;;;;;9.60;6.20;;;16.30;99.90;;;;;;5066897;28;38476;-82
2022/09/05 04:45:47;;;;;;;6.88;5.63;;;16.40;99.90;;;;;;5047180;28;37120;-81
2022/09/05 04:48:18;;;;;;;7.75;6.95;;;16.40;99.90;;;;;;5045792;28;36371;-81
2022/09/05 04:51:02;;;;;;;8.77;6.20;;;16.50;99.90;;;;;;5064813;28;38764;-81
2022/09/05 04:54:10;;;;;;;7.38;5.57;;;16.50;99.90;;;;;;5061272;28;48580;-80
2022/09/05 04:56:43;;;;;;;11.88;5.95;;;16.40;99.90;;;;;;5056151;28;48306;-79
2022/09/05 04:59:31;;;;;;;7.50;5.85;;;16.40;99.90;;;;;;5046477;28;36154;-80
2022/09/05 05:02:08;;;;;;;8.93;5.78;;;16.40;99.90;;;;;;5048171;28;40165;-82
2022/09/05 05:04:34;;;;;;;7.80;5.43;;;16.30;99.90;;;;;;5048037;28;47704;-81
2022/09/05 05:07:16;;;;;;;10.57;5.93;;;16.30;99.90;;;;;;5048446;28;37158;-81
2022/09/05 05:09:51;;;;;;;9.43;6.40;;;16.30;99.90;;;;;;5045260;28;47028;-81
2022/09/05 05:12:39;;;;;;;6.80;5.95;;;16.30;99.90;;;;;;5063719;28;39557;-82
2022/09/05 05:15:13;;;;;;;9.77;6.18;;;16.30;99.90;;;;;;5058115;28;39297;-81
2022/09/05 05:17:57;;;;;;;8.63;6.60;;;16.30;99.90;;;;;;5046250;28;38737;-80
2022/09/05 05:20:33;;;;;;;8.75;6.00;;;16.30;99.90;;;;;;5049789;28;37829;-82
2022/09/05 05:23:02;;;;;;;10.88;6.03;;;16.20;99.90;;;;;;5064592;28;38551;-81
2022/09/05 05:25:32;;;;;;;9.18;6.28;;;16.30;99.90;;;;;;5062018;28;48891;-81
2022/09/05 05:28:07;;;;;;;6.95;5.47;;;16.30;99.90;;;;;;5062627;28;37776;-83
2022/09/05 05:30:34;;;;;;;8.15;5.32;;;16.40;99.90;;;;;;5052035;28;49078;-84
2022/09/05 05:33:12;;;;;;;8.35;5.57;;;16.50;99.90;;;;;;5045988;28;38986;-83
2022/09/05 05:35:39;;;;;;;10.48;6.22;;;16.50;99.90;;;;;;5064689;28;48773;-83
2022/09/05 05:38:34;;;;;;;8.20;5.72;;;16.60;99.90;;;;;;5043218;28;38548;-82
2022/09/05 05:41:20;;;;;;;9.65;5.95;;;16.70;99.90;;;;;;5045993;28;37748;-81
2022/09/05 05:43:49;;;;;;;8.90;5.38;;;16.80;99.90;;;;;;5060221;28;48541;-82
2022/09/05 05:46:27;;;;;;;8.52;5.30;;;16.80;99.90;;;;;;5046215;28;39555;-81
2022/09/05 05:49:02;;;;;;;10.77;5.07;;;16.90;99.90;;;;;;5063869;28;37638;-80
2022/09/05 05:51:57;;;;;;;7.63;4.75;;;17.00;99.90;;;;;;5036933;28;47651;-82
2022/09/05 05:54:31;;;;;;;7.80;5.30;;;17.10;99.90;;;;;;5034986;28;39614;-81
2022/09/05 05:57:06;;;;;;;8.40;5.53;;;17.30;99.90;;;;;;5040112;28;39633;-82
2022/09/05 06:00:04;;;;;;;7.72;5.22;;;17.40;99.90;;;;;;5060516;28;49398;-83
2022/09/05 06:02:53;;;;;;;6.28;5.10;;;17.50;99.90;;;;;;5043997;28;47046;-81
2022/09/05 06:05:52;;;;;;;7.40;5.00;;;17.60;99.90;;;;;;5056234;28;39684;-79
2022/09/05 06:08:51;;;;;;;5.53;4.50;;;17.70;99.90;;;;;;4983529;28;40104;-79
2022/09/05 06:12:16;;;;;;;7.78;5.35;;;17.80;99.90;;;;;;5056476;28;38236;-78
2022/09/05 06:15:09;;;;;;;7.30;5.30;;;17.90;99.90;;;;;;4957486;28;47280;-80
2022/09/05 06:17:44;;;;;;;7.47;5.32;;;18.10;99.90;;;;;;4974854;28;48658;-80
2022/09/05 06:20:42;;;;;;;9.32;6.30;;;18.30;99.90;;;;;;5016999;28;39414;-81
2022/09/05 06:23:12;;;;;;;7.70;5.38;;;18.40;99.90;;;;;;5031752;28;38757;-78
2022/09/05 06:25:57;;;;;;;5.85;4.45;;;18.50;99.90;;;;;;5035622;28;37382;-79
2022/09/05 06:28:43;;;;;;;5.72;5.07;;;18.60;99.90;;;;;;5036368;28;40446;-77
2022/09/05 06:31:19;;;;;;;9.63;6.07;;;18.60;99.90;;;;;;5044928;28;20049;-77
2022/09/05 06:34:01;;;;;;;7.07;5.03;;;18.70;99.90;;;;;;5060689;28;38876;-76
2022/09/05 06:36:50;;;;;;;7.18;4.97;;;18.80;99.90;;;;;;5059158;28;47777;-77
2022/09/05 06:39:48;;;;;;;5.22;4.72;;;18.80;99.90;;;;;;5056987;28;40381;-78
2022/09/05 06:42:29;;;;;;;8.10;5.47;;;18.90;99.90;;;;;;5034203;28;40147;-77
2022/09/05 06:45:15;;;;;;;7.82;4.70;;;19.10;99.90;;;;;;5055402;28;37864;-78
2022/09/05 06:47:45;;;;;;;6.00;4.43;;;19.20;99.90;;;;;;5048457;28;48438;-77
2022/09/05 06:50:23;;;;;;;5.53;4.00;;;19.40;99.90;;;;;;5053622;28;38235;-77
2022/09/05 06:53:03;;;;;;;6.32;4.28;;;19.50;99.90;;;;;;5045784;28;39013;-77
2022/09/05 06:55:57;;;;;;;6.75;5.18;;;19.60;99.90;;;;;;5047323;28;47158;-77
2022/09/05 06:59:13;;;;;;;6.47;3.67;;;19.80;99.90;;;;;;5047917;28;37904;-77
2022/09/05 07:01:57;;;;;;;4.57;3.90;;;20.00;99.90;;;;;;5014253;28;49336;-77
2022/09/05 07:04:52;;;;;;;6.78;3.78;;;20.10;99.90;;;;;;5046122;28;40326;-76
2022/09/05 07:07:33;;;;;;;5.38;3.65;;;20.20;99.90;;;;;;5060052;28;38152;-77
2022/09/05 07:10:16;;;;;;;8.52;4.32;;;20.30;99.90;;;;;;5058133;28;39690;-77
2022/09/05 07:13:07;;;;;;;6.18;3.55;;;20.40;99.90;;;;;;5044198;28;47107;-77
2022/09/05 07:15:53;;;;;;;8.38;3.92;;;20.30;99.90;;;;;;5059877;28;48852;-76
2022/09/05 07:18:34;;;;;;;5.95;3.58;;;20.40;99.90;;;;;;5036007;28;38925;-77
2022/09/05 07:21:10;;;;;;;5.73;3.33;;;20.40;99.90;;;;;;5037809;28;40906;-76
2022/09/05 07:23:48;;;;;;;9.85;4.40;;;20.50;99.90;;;;;;5045376;28;47108;-76
2022/09/05 07:26:16;;;;;;;4.88;3.30;;;20.50;99.90;;;;;;5040304;28;40269;-76
2022/09/05 07:28:46;;;;;;;6.85;3.42;;;20.50;99.90;;;;;;5065687;28;39147;-76
2022/09/05 07:31:21;;;;;;;6.28;2.80;;;20.50;99.90;;;;;;5042590;28;37535;-75
2022/09/05 07:33:50;;;;;;;4.95;3.30;;;20.60;99.90;;;;;;5043608;28;40218;-76
2022/09/05 07:36:20;;;;;;;5.65;3.17;;;20.70;99.90;;;;;;5044173;28;37635;-77
2022/09/05 07:38:49;;;;;;;5.88;3.63;;;20.70;99.90;;;;;;5044239;28;36925;-75
2022/09/05 07:41:51;;;;;;;4.55;3.80;;;20.60;99.90;;;;;;5043772;28;36160;-75
2022/09/05 07:44:31;;;;;;;6.00;3.70;;;20.60;99.90;;;;;;5046783;28;38420;-74
2022/09/05 07:47:07;;;;;;;7.15;4.65;;;20.80;99.90;;;;;;5046000;28;37680;-75
2022/09/05 07:49:36;;;;;;;5.25;3.38;;;21.10;99.90;;;;;;5035088;28;46860;-76
2022/09/05 07:52:19;;;;;;;5.60;3.67;;;21.20;99.90;;;;;;5044050;28;37386;-76
2022/09/05 07:54:47;;;;;;;7.55;3.30;;;21.50;99.90;;;;;;5046600;28;39549;-80
2022/09/05 07:57:23;;;;;;;7.10;3.20;;;21.80;99.90;;;;;;5047125;28;40095;-77
2022/09/05 07:59:53;;;;;;;10.25;3.30;;;22.10;99.90;;;;;;5059030;28;38267;-79
2022/09/05 08:02:20;;;;;;;8.65;3.17;;;22.50;99.90;;;;;;5061957;28;37813;-80
2022/09/05 08:04:46;;;;;;;5.32;2.80;;;22.70;99.90;;;;;;5046420;28;41161;-79
2022/09/05 08:07:13;;;;;;;7.35;3.05;;;23.00;99.90;;;;;;5044070;28;38652;-78
2022/09/05 08:09:46;;;;;;;5.15;2.63;;;23.40;99.90;;;;;;5040870;28;38410;-79
2022/09/05 08:12:19;;;;;;;12.05;2.92;;;23.60;99.90;;;;;;5051604;28;37073;-77
2022/09/05 08:15:10;;;;;;;8.38;2.85;;;24.00;99.90;;;;;;5041554;28;39573;-77
2022/09/05 08:17:51;;;;;;;7.00;2.80;;;24.10;99.90;;;;;;5038168;28;47100;-78
2022/09/05 08:20:30;;;;;;;6.50;2.92;;;23.80;99.90;;;;;;5055525;28;37746;-79
2022/09/05 08:23:23;;;;;;;7.03;2.50;;;23.60;99.90;;;;;;5038782;28;38405;-78
2022/09/05 08:25:58;;;;;;;3.97;2.53;;;23.50;99.90;;;;;;5058021;28;48886;-78
2022/09/05 08:28:38;;;;;;;4.82;2.55;;;23.50;99.90;;;;;;5057049;28;38415;-78
2022/09/05 08:31:19;;;;;;;5.93;2.30;;;23.60;99.90;;;;;;5042133;28;39695;-78
2022/09/05 08:33:47;;;;;;;5.82;2.15;;;23.70;99.90;;;;;;5035778;28;37645;-78
2022/09/05 08:36:30;;;;;;;6.82;2.50;;;24.00;99.90;;;;;;5061734;28;38659;-78
2022/09/05 08:38:59;;;;;;;6.35;2.20;;;24.20;99.90;;;;;;5058165;28;38453;-80
2022/09/05 08:41:41;;;;;;;8.15;2.45;;;24.30;99.90;;;;;;5038861;28;38204;-78
2022/09/05 08:44:26;;;;;;;6.05;1.50;;;24.40;99.90;;;;;;5056772;28;37054;-79
2022/09/05 08:47:01;;;;;;;6.20;1.90;;;24.70;99.90;;;;;;5054527;28;38985;-78
2022/09/05 08:49:48;;;;;;;5.25;1.75;;;24.90;99.90;;;;;;5059019;28;38868;-78
2022/09/05 08:53:02;;;;;;;4.78;1.77;;;24.90;99.90;;;;;;5062042;28;38070;-78
2022/09/05 08:55:48;;;;;;;5.50;1.83;;;25.10;99.90;;;;;;4993715;28;49669;-78
2022/09/05 08:58:31;;;;;;;7.18;1.77;;;25.30;99.90;;;;;;4998420;28;38910;-77
2022/09/05 09:01:16;;;;;;;3.72;1.50;;;25.40;99.90;;;;;;5028866;28;39055;-76
2022/09/05 09:03:48;;;;;;;6.53;1.60;;;25.60;99.90;;;;;;5059018;28;47034;-78
2022/09/05 09:06:46;;;;;;;4.53;1.58;;;25.70;99.90;;;;;;5065821;28;37140;-79
2022/09/05 09:09:34;;;;;;;5.63;1.40;;;25.80;99.90;;;;;;5044420;28;39446;-77
2022/09/05 09:12:48;;;;;;;2.70;1.40;;;25.90;99.90;;;;;;5061058;28;39036;-78
2022/09/05 09:15:35;;;;;;;5.07;1.58;;;25.90;99.90;;;;;;4945784;28;47558;-78
2022/09/05 09:18:13;;;;;;;5.70;1.63;;;26.10;99.90;;;;;;5045666;28;37864;-79
2022/09/05 09:20:53;;;;;;;3.42;1.40;;;26.20;99.90;;;;;;5064966;28;49380;-76
2022/09/05 09:23:34;;;;;;;4.60;1.50;;;26.30;99.90;;;;;;5066540;28;38278;-76
2022/09/05 09:26:38;;;;;;;2.10;1.20;;;26.30;99.90;;;;;;5063100;28;37593;-78
2022/09/05 09:29:07;;;;;;;3.42;1.63;;;26.10;99.90;;;;;;5050997;28;48909;-78
2022/09/05 09:31:58;;;;;;;6.38;1.70;;;26.10;99.90;;;;;;5059655;28;38643;-79
2022/09/05 09:34:28;;;;;;;3.72;1.30;;;25.90;99.90;;;;;;5041760;28;39091;-79
2022/09/05 09:37:18;;;;;;;5.10;1.45;;;25.80;99.90;;;;;;5041416;28;38739;-78
2022/09/05 09:40:12;;;;;;;3.40;1.42;;;25.90;99.90;;;;;;5039420;28;46993;-79
2022/09/05 09:42:52;;;;;;;2.65;1.30;;;25.90;99.90;;;;;;5055758;28;46976;-79
2022/09/05 09:45:50;;;;;;;6.13;1.50;;;25.90;99.90;;;;;;5042686;28;39102;-79
2022/09/05 09:48:54;;;;;;;5.65;1.88;;;26.00;99.90;;;;;;5060093;28;38537;-78
2022/09/05 09:52:04;;;;;;;5.93;1.90;;;25.80;99.90;;;;;;5041968;28;35962;-79
2022/09/05 09:55:11;;;;;;;4.10;1.50;;;25.60;99.90;;;;;;5043729;28;47070;-80
2022/09/05 09:58:03;;;;;;;8.27;1.63;;;25.70;99.90;;;;;;5039586;28;45716;-76
2022/09/05 10:01:27;;;;;;;8.48;1.70;;;26.00;99.90;;;;;;5050371;28;37785;-77
2022/09/05 10:04:05;;;;;;;6.55;1.63;;;26.40;99.90;;;;;;5012311;28;48559;-76
2022/09/05 10:06:52;;;;;;;3.08;1.42;;;26.70;99.90;;;;;;5058166;28;46779;-77
2022/09/05 10:09:28;;;;;;;3.15;1.42;;;26.70;99.90;;;;;;5046397;28;39156;-77
2022/09/05 10:12:29;;;;;;;4.55;1.92;;;26.70;99.90;;;;;;5043910;28;39417;-77
2022/09/05 10:15:22;;;;;;;4.90;1.52;;;26.10;99.90;;;;;;5055376;28;48740;-77
2022/09/05 10:18:07;;;;;;;3.47;1.55;;;26.00;99.90;;;;;;5062528;28;49077;-78
2022/09/05 10:20:56;;;;;;;3.50;1.35;;;26.00;99.90;;;;;;5044263;28;47004;-78
2022/09/05 10:23:35;;;;;;;1.90;1.45;;;26.20;99.90;;;;;;5057371;28;37174;-78
2022/09/05 10:26:20;;;;;;;2.70;1.40;;;26.30;99.90;;;;;;5059329;28;37460;-78
2022/09/05 10:29:12;;;;;;;5.38;1.40;;;26.40;99.90;;;;;;5042353;28;47412;-78
2022/09/05 10:31:49;;;;;;;8.25;1.38;;;26.90;99.90;;;;;;5040683;28;47660;-78
2022/09/05 10:34:22;;;;;;;4.18;1.20;;;27.10;99.90;;;;;;5043741;28;38217;-78
2022/09/05 10:36:58;;;;;;;1.83;1.23;;;27.20;99.90;;;;;;5040580;28;37289;-78
2022/09/05 10:39:31;;;;;;;3.50;1.30;;;27.20;99.90;;;;;;5063254;28;39618;-78
2022/09/05 10:42:03;;;;;;;1.50;1.10;;;27.40;99.90;;;;;;5061715;28;38680;-77
2022/09/05 10:44:56;;;;;;;5.30;1.20;;;27.50;99.90;;;;;;5055215;28;47182;-77
2022/09/05 10:47:57;;;;;;;1.85;1.10;;;27.60;99.90;;;;;;5057055;28;37025;-78
2022/09/05 10:50:32;;;;;;;6.10;1.23;;;27.10;99.90;;;;;;5016880;28;37566;-77
2022/09/05 10:53:18;;;;;;;3.78;1.60;;;27.20;99.90;;;;;;5060297;28;38382;-77
2022/09/05 10:56:03;;;;;;;1.90;1.30;;;27.50;99.90;;;;;;5045156;28;48095;-77
2022/09/05 10:58:32;;;;;;;4.28;1.27;;;27.70;99.90;;;;;;5052803;28;48317;-78
2022/09/05 11:01:05;;;;;;;4.25;1.23;;;28.00;99.90;;;;;;5062765;28;39652;-77
2022/09/05 11:03:51;;;;;;;4.55;1.23;;;28.20;99.90;;;;;;5040554;28;47179;-78
2022/09/05 11:06:41;;;;;;;4.40;1.45;;;28.40;99.90;;;;;;5062664;28;39044;-78
2022/09/05 11:09:21;;;;;;;8.30;1.30;;;28.30;99.90;;;;;;5039017;28;36516;-78
2022/09/05 11:12:02;;;;;;;1.98;1.52;;;28.80;99.90;;;;;;5038709;28;37759;-78
2022/09/05 11:14:49;;;;;;;2.58;1.02;;;28.80;99.90;;;;;;5055582;28;48469;-77
2022/09/05 11:17:36;;;;;;;5.53;1.20;;;28.90;99.90;;;;;;5053236;28;38256;-77
2022/09/05 11:20:53;;;;;;;2.03;1.05;;;28.70;99.90;;;;;;5057930;28;36921;-77
2022/09/05 11:23:32;;;;;;;3.50;1.30;;;28.60;99.90;;;;;;5002452;28;38761;-77
2022/09/05 11:26:04;;;;;;;5.13;1.20;;;28.50;99.90;;;;;;5034868;28;38040;-78
2022/09/05 11:28:50;;;;;;;1.25;0.90;;;28.80;99.90;;;;;;5060910;28;48134;-78
2022/09/05 11:31:26;;;;;;;1.27;0.98;;;29.20;99.90;;;;;;5042680;28;36344;-77
2022/09/05 11:34:19;;;;;;;3.33;1.00;;;29.10;99.90;;;;;;5058670;28;39078;-78
2022/09/05 11:36:50;;;;;;;3.05;1.13;;;29.50;99.90;;;;;;5060658;28;48362;-78
2022/09/05 11:39:42;;;;;;;2.60;1.10;;;29.60;99.90;;;;;;5062029;28;39163;-78
2022/09/05 11:42:36;;;;;;;2.63;1.20;;;29.70;99.90;;;;;;5060929;28;38020;-79
2022/09/05 11:45:39;;;;;;;2.58;1.00;;;29.30;99.90;;;;;;5059057;28;39517;-78
2022/09/05 11:48:27;;;;;;;3.47;1.15;;;29.30;99.90;;;;;;5057720;28;47049;-78
2022/09/05 11:51:17;;;;;;;4.30;0.90;;;29.60;99.90;;;;;;5044457;28;38430;-79
2022/09/05 11:54:02;;;;;;;4.53;1.27;;;29.40;99.90;;;;;;5061627;28;49334;-78
2022/09/05 11:56:57;;;;;;;4.85;1.10;;;29.40;99.90;;;;;;5058819;28;48611;-78
2022/09/05 11:59:50;;;;;;;1.95;1.20;;;29.20;99.90;;;;;;5041540;28;37020;-78
2022/09/05 12:02:47;;;;;;;3.88;1.35;;;29.00;99.90;;;;;;5037716;28;37857;-79
2022/09/05 12:05:50;;;;;;;2.30;1.23;;;28.80;99.90;;;;;;5032492;28;36814;-78
2022/09/05 12:08:45;;;;;;;2.60;1.25;;;28.90;99.90;;;;;;5062587;28;38643;-77
2022/09/05 12:11:52;;;;;;;4.45;1.15;;;29.60;99.90;;;;;;5052089;28;38501;-77
2022/09/05 12:14:39;;;;;;;1.88;1.25;;;29.40;99.90;;;;;;5035542;28;37543;-78
2022/09/05 12:17:29;;;;;;;5.55;1.10;;;29.60;99.90;;;;;;5053811;28;37790;-78
2022/09/05 12:20:06;;;;;;;3.45;1.27;;;29.80;99.90;;;;;;5040615;28;37553;-78
2022/09/05 12:22:41;;;;;;;1.95;1.00;;;29.70;99.90;;;;;;5064608;28;48922;-78
2022/09/05 12:25:25;;;;;;;3.53;1.40;;;29.70;99.90;;;;;;5061145;28;37778;-79
2022/09/05 12:27:57;;;;;;;2.45;1.00;;;29.70;99.90;;;;;;5060864;28;38289;-79
2022/09/05 12:30:25;;;;;;;;;;;29.60;99.90;;;;;;5058970;28;38621;-78
2022/09/05 12:32:52;;;;;;;5.10;1.20;;;29.50;99.90;;;;;;5067090;28;38652;-79
2022/09/05 12:35:30;;;;;;;3.65;1.23;;;29.50;99.90;;;;;;5064819;28;38859;-80
2022/09/05 12:38:35;;;;;;;2.30;0.90;;;29.70;99.90;;;;;;5065516;28;36722;-80
2022/09/05 12:41:09;;;;;;;5.20;1.45;;;30.40;99.90;;;;;;5057346;28;47579;-79
2022/09/05 12:43:50;;;;;;;2.85;1.13;;;30.20;99.90;;;;;;5062894;28;48657;-80
2022/09/05 12:46:25;;;;;;;1.80;1.30;;;30.10;99.90;;;;;;5045319;28;37774;-80
2022/09/05 12:49:00;;;;;;;3.88;1.30;;;30.40;99.90;;;;;;5050680;28;37538;-80
2022/09/05 12:51:32;;;;;;;3.10;0.93;;;30.40;99.90;;;;;;5047852;28;37423;-80
2022/09/05 12:54:08;;;;;;;2.58;1.10;;;30.40;99.90;;;;;;5047016;28;38697;-80
2022/09/05 12:56:59;;;;;;;2.45;1.30;;;30.50;99.90;;;;;;5065978;28;48585;-80
2022/09/05 12:59:28;;;;;;;2.97;1.38;;;30.50;99.90;;;;;;5043463;28;37800;-79
2022/09/05 13:02:02;;;;;;;5.65;1.42;;;30.00;99.90;;;;;;5053636;28;39976;-82
2022/09/05 13:04:39;;;;;;;2.45;1.33;;;30.10;99.90;;;;;;5043748;28;47841;-79
2022/09/05 13:07:12;;;;;;;4.68;1.80;;;30.20;99.90;;;;;;5044917;28;38606;-79
2022/09/05 13:09:47;;;;;;;1.73;1.25;;;30.30;99.90;;;;;;5041881;28;37592;-78
2022/09/05 13:12:41;;;;;;;4.07;1.30;;;30.20;99.90;;;;;;5056682;28;38780;-81
2022/09/05 13:15:25;;;;;;;3.15;1.33;;;29.70;99.90;;;;;;5056360;28;39521;-81
2022/09/05 13:18:12;;;;;;;2.35;1.30;;;29.70;99.90;;;;;;5062801;28;39153;-80
2022/09/05 13:21:07;;;;;;;1.92;1.15;;;29.80;99.90;;;;;;5047473;28;47323;-81
2022/09/05 13:24:16;;;;;;;2.53;1.50;;;29.80;99.90;;;;;;5051403;28;48391;-78
2022/09/05 13:27:12;;;;;;;1.83;1.40;;;29.90;99.90;;;;;;5055699;28;46957;-81
2022/09/05 13:29:52;;;;;;;2.33;1.15;;;29.60;99.90;;;;;;5041652;28;47220;-80
2022/09/05 13:32:33;;;;;;;2.90;1.60;;;29.60;99.90;;;;;;5045554;28;35405;-80
2022/09/05 13:35:14;;;;;;;2.47;1.50;;;29.50;99.90;;;;;;5063597;28;40130;-80
2022/09/05 13:37:48;;;;;;;2.88;1.30;;;29.50;99.90;;;;;;5056202;28;48889;-81
2022/09/05 13:40:18;;;;;;;3.22;1.10;;;29.60;99.90;;;;;;5062568;28;35637;-80
2022/09/05 13:43:04;;;;;;;1.95;1.10;;;29.80;99.90;;;;;;5062324;28;37047;-80
2022/09/05 13:45:34;;;;;;;6.72;1.30;;;29.70;99.90;;;;;;5061854;28;46993;-80
2022/09/05 13:48:28;;;;;;;4.72;1.40;;;29.70;99.90;;;;;;5047539;28;37233;-80
2022/09/05 13:51:04;;;;;;;6.95;1.27;;;29.60;99.90;;;;;;5047493;28;47123;-80
2022/09/05 13:53:50;;;;;;;4.95;1.40;;;29.60;99.90;;;;;;5066736;28;47876;-80
2022/09/05 13:56:26;;;;;;;3.75;1.33;;;29.60;99.90;;;;;;5065723;28;39106;-80
2022/09/05 13:59:09;;;;;;;3.47;1.10;;;29.60;99.90;;;;;;5058136;28;38169;-80
2022/09/05 14:02:10;;;;;;;3.10;1.33;;;29.60;99.90;;;;;;5054506;28;47745;-79
2022/09/05 14:04:56;;;;;;;1.63;1.10;;;29.60;99.90;;;;;;5044971;28;47233;-80
2022/09/05 14:07:28;;;;;;;6.13;1.42;;;29.60;99.90;;;;;;5062119;28;38576;-80
2022/09/05 14:10:19;;;;;;;2.50;1.20;;;29.60;99.90;;;;;;5062190;28;39210;-79
2022/09/05 14:13:00;;;;;;;2.80;1.50;;;29.50;99.90;;;;;;5056010;28;48237;-79
2022/09/05 14:15:56;;;;;;;3.42;1.38;;;29.50;99.90;;;;;;5040547;28;47174;-78
2022/09/05 14:21:14;;;;;;;6.38;1.70;;;29.50;99.90;;;;;;5044053;28;39377;-79